METAR Data

Data at: 1246 UTC 24 May 2022

METAR for:KACK (Nantucket Mem Arpt, MA, US)
Text:KACK 241153Z 04014G19KT 10SM -RA SCT065 OVC120 13/08 A3028 RMK AO2 RAB53 SLP255 P0000 60000 T01280078 10144 20128 50012
Temperature: 12.8°C ( 55°F)
Dewpoint: 7.8°C ( 46°F) [RH = 72%]
Pressure (altimeter):30.28 inches Hg (1025.5 mb) [Sea level pressure: 1025.5 mb]
Winds:from the NE (40 degrees) at 16 MPH (14 knots; 7.2 m/s) gusting to 22 MPH (19 knots; 9.8 m/s)
Visibility:10 or more sm (16+ km)
Ceiling:12000 feet AGL
Clouds: scattered clouds at 6500 feet AGL, overcast cloud deck at 12000 feet AGL
Weather:-RA (light rain)